Time,TemperatureF,DewpointF,PressureIn,WindDirection,WindDirectionDegrees,WindSpeedMPH,WindSpeedGustMPH,Humidity,HourlyPrecipIn,Conditions,Clouds,dailyrainin,SoftwareType,DateUTC
2013-11-02 00:00:00,58.3,54.0,29.80,WSW,239,0.0,-999.0,85,-99.99,,,0.00,weatherlink.com 1.10,2013-11-02 04:00:00,
2013-11-02 00:15:00,58.3,54.0,29.80,WNW,296,0.0,-999.0,86,-99.99,,,0.00,weatherlink.com 1.10,2013-11-02 04:15:00,
2013-11-02 00:30:00,58.1,54.0,29.80,West,279,0.0,-999.0,85,-99.99,,,0.00,weatherlink.com 1.10,2013-11-02 04:30:00,
2013-11-02 00:45:00,57.8,53.0,29.80,West,279,0.0,-999.0,85,-99.99,,,0.00,weatherlink.com 1.10,2013-11-02 04:45:00,
2013-11-02 01:00:00,57.4,53.0,29.79,West,279,0.0,-999.0,85,-99.99,,,0.00,weatherlink.com 1.10,2013-11-02 05:00:00,
2013-11-02 01:15:00,57.0,53.0,29.79,West,279,0.0,-999.0,85,-99.99,,,0.00,weatherlink.com 1.10,2013-11-02 05:15:00,
2013-11-02 01:30:00,56.7,52.0,29.79,West,279,0.0,-999.0,85,-99.99,,,0.00,weatherlink.com 1.10,2013-11-02 05:30:00,
2013-11-02 01:45:00,56.2,52.0,29.79,West,279,0.0,-999.0,84,-99.99,,,0.00,weatherlink.com 1.10,2013-11-02 05:45:00,
2013-11-02 02:01:00,55.7,51.0,29.79,West,279,0.0,-999.0,84,-99.99,,,0.00,weatherlink.com 1.10,2013-11-02 06:01:00,
2013-11-02 02:16:00,55.0,50.0,29.80,West,279,0.0,-999.0,84,-99.99,,,0.00,weatherlink.com 1.10,2013-11-02 06:16:00,
2013-11-02 02:31:00,54.5,50.0,29.81,West,279,0.0,-999.0,84,-99.99,,,0.00,weatherlink.com 1.10,2013-11-02 06:31:00,
2013-11-02 02:46:00,54.1,49.0,29.81,West,280,0.0,-999.0,84,-99.99,,,0.00,weatherlink.com 1.10,2013-11-02 06:46:00,
2013-11-02 03:01:00,53.9,49.0,29.81,West,280,0.0,-999.0,84,-99.99,,,0.00,weatherlink.com 1.10,2013-11-02 07:01:00,
2013-11-02 03:16:00,53.6,49.0,29.81,West,280,0.0,-999.0,84,-99.99,,,0.00,weatherlink.com 1.10,2013-11-02 07:16:00,
2013-11-02 03:31:00,53.3,49.0,29.81,West,280,0.0,-999.0,84,-99.99,,,0.00,weatherlink.com 1.10,2013-11-02 07:31:00,
2013-11-02 03:46:00,53.1,49.0,29.81,West,280,0.0,-999.0,85,-99.99,,,0.00,weatherlink.com 1.10,2013-11-02 07:46:00,
2013-11-02 04:01:00,52.8,48.0,29.82,West,280,0.0,-999.0,85,-99.99,,,0.00,weatherlink.com 1.10,2013-11-02 08:01:00,
2013-11-02 04:16:00,52.3,48.0,29.82,West,280,0.0,-999.0,84,-99.99,,,0.00,weatherlink.com 1.10,2013-11-02 08:16:00,
2013-11-02 04:32:00,51.8,47.0,29.82,West,280,0.0,-999.0,84,-99.99,,,0.00,weatherlink.com 1.10,2013-11-02 08:32:00,
2013-11-02 04:47:00,51.1,46.0,29.82,West,280,0.0,-999.0,84,-99.99,,,0.00,weatherlink.com 1.10,2013-11-02 08:47:00,
2013-11-02 05:02:00,50.6,46.0,29.83,West,280,0.0,-999.0,84,-99.99,,,0.00,weatherlink.com 1.10,2013-11-02 09:02:00,
2013-11-02 05:17:00,50.0,45.0,29.83,West,280,0.0,-999.0,84,-99.99,,,0.00,weatherlink.com 1.10,2013-11-02 09:17:00,
2013-11-02 05:32:00,49.6,45.0,29.83,West,280,0.0,-999.0,84,-99.99,,,0.00,weatherlink.com 1.10,2013-11-02 09:32:00,
2013-11-02 05:47:00,49.3,45.0,29.83,West,280,0.0,-999.0,84,-99.99,,,0.00,weatherlink.com 1.10,2013-11-02 09:47:00,
2013-11-02 06:02:00,48.9,44.0,29.83,West,280,0.0,-999.0,84,-99.99,,,0.00,weatherlink.com 1.10,2013-11-02 10:02:00,
2013-11-02 06:17:00,48.5,44.0,29.83,West,280,0.0,-999.0,84,-99.99,,,0.00,weatherlink.com 1.10,2013-11-02 10:17:00,
2013-11-02 06:32:00,48.1,44.0,29.85,West,280,0.0,-999.0,84,-99.99,,,0.00,weatherlink.com 1.10,2013-11-02 10:32:00,
2013-11-02 06:47:00,47.7,43.0,29.85,West,280,0.0,-999.0,84,-99.99,,,0.00,weatherlink.com 1.10,2013-11-02 10:47:00,
2013-11-02 07:03:00,47.3,43.0,29.85,West,280,0.0,-999.0,84,-99.99,,,0.00,weatherlink.com 1.10,2013-11-02 11:03:00,
2013-11-02 07:18:00,46.9,42.0,29.86,West,280,0.0,-999.0,84,-99.99,,,0.00,weatherlink.com 1.10,2013-11-02 11:18:00,
2013-11-02 07:33:00,46.5,42.0,29.86,West,280,0.0,-999.0,84,-99.99,,,0.00,weatherlink.com 1.10,2013-11-02 11:33:00,
2013-11-02 07:48:00,46.2,42.0,29.87,West,280,0.0,-999.0,84,-99.99,,,0.00,weatherlink.com 1.10,2013-11-02 11:48:00,
2013-11-02 08:03:00,46.0,41.0,29.88,West,280,0.0,-999.0,84,-99.99,,,0.00,weatherlink.com 1.10,2013-11-02 12:03:00,
2013-11-02 08:18:00,45.9,42.0,29.88,West,280,0.0,-999.0,85,-99.99,,,0.00,weatherlink.com 1.10,2013-11-02 12:18:00,
2013-11-02 08:33:00,46.2,42.0,29.89,West,280,0.0,-999.0,85,-99.99,,,0.00,weatherlink.com 1.10,2013-11-02 12:33:00,
2013-11-02 23:17:00,48.4,36.0,30.07,NNE,22,0.0,-999.0,62,-99.99,,,0.01,weatherlink.com 1.10,2013-11-03 03:17:00,
2013-11-02 23:22:00,48.2,36.0,30.07,NNE,22,0.0,-999.0,64,-99.99,,,0.01,weatherlink.com 1.10,2013-11-03 03:22:00,
2013-11-02 23:37:00,47.4,36.0,30.07,NNE,22,0.0,-999.0,66,-99.99,,,0.01,weatherlink.com 1.10,2013-11-03 03:37:00,
2013-11-02 23:53:00,47.0,35.0,30.08,SE,128,0.0,-999.0,63,-99.99,,,0.01,weatherlink.com 1.10,2013-11-03 03:53:00,